Time;durP1;ratioP1;P1;durP2;ratioP2;P2;SDS_P1;SDS_P2;PMS_P1;PMS_P2;Temp;Humidity;BMP_temperature;BMP_pressure;BME280_temperature;BME280_humidity;BME280_pressure;Samples;Min_cycle;Max_cycle;Signal;HPM_P1;HPM_P2
2023/03/30 00:00:37;;;;;;;11.73;5.82;;;12.00;99.90;;;;;;5075833;28;20047;-93
2023/03/30 00:03:03;;;;;;;14.18;5.22;;;12.10;99.90;;;;;;5092874;28;20123;-93
2023/03/30 00:05:30;;;;;;;11.75;5.10;;;12.10;99.90;;;;;;5075033;28;20122;-93
2023/03/30 00:07:56;;;;;;;12.88;5.03;;;12.10;99.90;;;;;;5076070;28;20050;-93
2023/03/30 00:10:22;;;;;;;10.02;5.38;;;12.10;99.90;;;;;;5074924;28;20047;-93
2023/03/30 00:12:52;;;;;;;9.48;5.03;;;12.20;99.90;;;;;;5092780;28;20071;-93
2023/03/30 00:15:20;;;;;;;11.63;5.10;;;12.20;99.90;;;;;;5075814;28;20109;-93
2023/03/30 00:17:46;;;;;;;11.10;4.63;;;12.30;99.90;;;;;;5075568;28;20074;-93
2023/03/30 00:20:13;;;;;;;12.43;4.78;;;12.30;99.90;;;;;;5076127;28;20039;-93
2023/03/30 00:22:40;;;;;;;10.18;6.13;;;12.30;99.90;;;;;;5075540;28;20043;-93
2023/03/30 00:25:09;;;;;;;9.40;4.38;;;12.40;99.90;;;;;;5075895;28;20078;-93
2023/03/30 00:27:36;;;;;;;9.43;4.20;;;12.40;99.90;;;;;;5075210;28;20063;-93
2023/03/30 00:30:04;;;;;;;13.15;4.75;;;12.30;99.90;;;;;;5075904;28;20043;-93
2023/03/30 00:32:30;;;;;;;11.75;5.00;;;12.40;99.90;;;;;;5075378;28;20122;-93
2023/03/30 00:34:56;;;;;;;9.30;4.00;;;12.40;99.90;;;;;;5075484;28;20068;-93
2023/03/30 00:37:22;;;;;;;9.75;4.55;;;12.40;99.90;;;;;;5091996;28;20098;-93
2023/03/30 00:39:48;;;;;;;11.88;5.80;;;12.40;99.90;;;;;;5074782;28;20035;-93
2023/03/30 00:42:16;;;;;;;9.40;3.65;;;12.40;99.90;;;;;;5074330;28;20040;-92
2023/03/30 00:45:25;;;;;;;8.15;3.75;;;12.50;99.90;;;;;;5074478;28;20036;-92
2023/03/30 00:48:16;;;;;;;10.10;4.10;;;12.40;99.90;;;;;;5013280;28;20116;-92
2023/03/30 00:50:58;;;;;;;10.75;4.05;;;12.50;99.90;;;;;;5014239;28;20503;-93
2023/03/30 00:53:32;;;;;;;13.80;4.50;;;12.50;99.90;;;;;;4997008;28;20041;-92
2023/03/30 00:55:59;;;;;;;10.63;4.15;;;12.60;99.90;;;;;;5013890;28;20288;-94
2023/03/30 00:58:26;;;;;;;11.15;5.03;;;12.60;99.90;;;;;;4997370;28;20037;-93
2023/03/30 01:00:52;;;;;;;12.77;3.95;;;12.60;99.90;;;;;;5014155;28;20052;-94
2023/03/30 01:03:31;;;;;;;8.77;4.30;;;12.70;99.90;;;;;;4997185;28;20045;-93
2023/03/30 01:05:59;;;;;;;9.15;4.03;;;12.70;99.90;;;;;;5012970;28;20129;-93
2023/03/30 01:08:36;;;;;;;11.10;5.22;;;12.80;99.90;;;;;;5013382;28;20049;-93
2023/03/30 01:11:06;;;;;;;9.30;3.60;;;12.80;99.90;;;;;;5013537;28;20043;-92
2023/03/30 01:13:38;;;;;;;14.68;3.67;;;12.80;99.90;;;;;;5013312;28;20111;-92
2023/03/30 01:16:49;;;;;;;9.55;3.72;;;12.80;99.90;;;;;;5013407;28;20091;-93
2023/03/30 01:19:47;;;;;;;11.43;4.03;;;12.80;99.90;;;;;;4998408;28;20053;-92
2023/03/30 01:23:10;;;;;;;9.73;3.90;;;12.80;99.90;;;;;;5053213;28;20047;-93
2023/03/30 01:25:47;;;;;;;9.43;3.88;;;12.80;99.90;;;;;;4976121;28;20045;-93
2023/03/30 01:28:37;;;;;;;9.40;3.47;;;12.80;99.90;;;;;;4976617;28;20041;-93
2023/03/30 01:31:17;;;;;;;10.55;3.80;;;12.80;99.90;;;;;;4989856;28;20047;-92
2023/03/30 01:33:51;;;;;;;10.95;3.90;;;12.80;99.90;;;;;;4990329;28;20128;-92
2023/03/30 01:36:38;;;;;;;9.60;3.65;;;12.80;99.90;;;;;;4991272;28;20061;-93
2023/03/30 01:39:19;;;;;;;7.45;3.45;;;12.80;99.90;;;;;;4992723;28;20042;-93
2023/03/30 01:42:02;;;;;;;8.88;3.50;;;12.80;99.90;;;;;;4992214;28;20061;-93
2023/03/30 01:44:46;;;;;;;10.15;3.25;;;12.80;99.90;;;;;;5010154;28;20056;-93
2023/03/30 01:47:32;;;;;;;9.50;3.55;;;12.80;99.90;;;;;;4993429;28;20044;-94
2023/03/30 01:50:11;;;;;;;8.90;3.50;;;12.90;99.90;;;;;;4993621;28;20069;-93
2023/03/30 01:53:00;;;;;;;9.38;3.40;;;12.90;99.90;;;;;;5010123;28;20589;-93
2023/03/30 01:55:44;;;;;;;11.68;4.35;;;12.90;99.90;;;;;;5009010;28;20100;-93
2023/03/30 01:58:16;;;;;;;9.65;3.78;;;13.00;99.90;;;;;;5053429;28;20123;-93
2023/03/30 02:00:49;;;;;;;8.52;3.30;;;12.90;99.90;;;;;;5064231;28;20584;-92
2023/03/30 02:03:26;;;;;;;10.73;3.00;;;12.90;99.90;;;;;;5074276;28;20072;-93
2023/03/30 02:05:57;;;;;;;9.85;3.50;;;12.90;99.90;;;;;;5089642;28;20077;-93
2023/03/30 02:08:28;;;;;;;11.00;3.90;;;12.90;99.90;;;;;;5073880;28;20039;-94
2023/03/30 02:10:57;;;;;;;10.75;4.82;;;12.90;99.90;;;;;;5073917;28;20050;-94
2023/03/30 02:13:25;;;;;;;10.27;3.72;;;13.00;99.90;;;;;;5089562;28;20036;-93
2023/03/30 02:16:15;;;;;;;9.60;3.92;;;12.90;99.90;;;;;;5073518;28;20079;-94
2023/03/30 02:18:40;;;;;;;11.93;3.75;;;12.90;99.90;;;;;;5072562;28;20561;-93
2023/03/30 02:21:07;;;;;;;10.45;4.28;;;12.90;99.90;;;;;;5073095;28;20575;-93
2023/03/30 02:23:39;;;;;;;8.23;2.95;;;13.00;99.90;;;;;;5089935;28;20040;-93
2023/03/30 02:26:07;;;;;;;8.95;3.00;;;13.00;99.90;;;;;;5072390;28;20028;-93
2023/03/30 02:28:33;;;;;;;7.70;3.13;;;13.00;99.90;;;;;;5073196;28;20492;-94
2023/03/30 02:30:59;;;;;;;8.13;4.05;;;13.00;99.90;;;;;;5073377;28;20053;-93
2023/03/30 02:33:31;;;;;;;9.20;5.10;;;13.00;99.90;;;;;;5073518;28;20040;-93
2023/03/30 02:36:55;;;;;;;9.85;3.75;;;13.00;99.90;;;;;;5073370;28;20098;-94
2023/03/30 02:39:41;;;;;;;9.43;3.22;;;12.90;99.90;;;;;;4972477;28;20201;-93
2023/03/30 02:42:36;;;;;;;12.57;3.85;;;12.90;99.90;;;;;;5052079;28;20097;-93
2023/03/30 02:45:27;;;;;;;11.27;3.63;;;12.90;99.90;;;;;;5061912;28;20032;-92
2023/03/30 02:48:11;;;;;;;9.88;3.83;;;12.90;99.90;;;;;;5069738;28;20041;-93
2023/03/30 02:50:46;;;;;;;10.32;4.40;;;12.80;99.90;;;;;;5054964;28;20040;-94
2023/03/30 02:53:17;;;;;;;10.23;3.67;;;12.90;99.90;;;;;;5073095;28;20501;-94
2023/03/30 02:56:06;;;;;;;11.05;3.88;;;12.90;99.90;;;;;;5072540;28;20040;-94
2023/03/30 02:58:54;;;;;;;10.55;3.75;;;12.80;99.90;;;;;;5088962;28;20513;-92
2023/03/30 03:01:38;;;;;;;10.20;3.72;;;12.80;99.90;;;;;;5089270;28;20071;-92
2023/03/30 03:04:05;;;;;;;9.23;3.58;;;12.80;99.90;;;;;;5072130;28;20137;-93
2023/03/30 03:06:31;;;;;;;10.90;3.60;;;12.80;99.90;;;;;;5072654;28;20051;-92
2023/03/30 03:08:58;;;;;;;8.18;3.10;;;12.80;99.90;;;;;;5070904;28;20533;-92
2023/03/30 03:11:24;;;;;;;10.10;4.50;;;12.80;99.90;;;;;;5072422;28;20040;-93
2023/03/30 03:13:50;;;;;;;13.40;4.50;;;12.80;99.90;;;;;;5072865;28;20044;-93
2023/03/30 03:16:16;;;;;;;9.65;2.75;;;12.80;99.90;;;;;;5071437;28;20048;-93
2023/03/30 03:18:43;;;;;;;10.00;3.85;;;12.80;99.90;;;;;;5071936;28;20173;-92
2023/03/30 03:21:10;;;;;;;7.88;3.00;;;12.70;99.90;;;;;;5071651;28;20695;-92
2023/03/30 03:23:36;;;;;;;8.50;2.80;;;12.70;99.90;;;;;;5088743;28;20120;-92
2023/03/30 03:26:02;;;;;;;8.57;3.25;;;12.60;99.90;;;;;;5072566;28;20093;-92
2023/03/30 03:28:28;;;;;;;15.75;3.60;;;12.70;99.90;;;;;;5071958;28;20040;-93
2023/03/30 03:30:54;;;;;;;9.55;3.13;;;12.60;99.90;;;;;;5089533;28;20123;-92
2023/03/30 03:33:20;;;;;;;9.30;3.30;;;12.60;99.90;;;;;;5072538;28;20154;-94
2023/03/30 03:35:46;;;;;;;7.47;3.05;;;12.70;99.90;;;;;;5088447;28;20468;-92
2023/03/30 03:38:12;;;;;;;8.98;2.60;;;12.70;99.90;;;;;;5089912;28;20043;-93
2023/03/30 03:40:39;;;;;;;9.45;3.17;;;12.80;99.90;;;;;;5089371;28;20047;-93
2023/03/30 03:43:05;;;;;;;8.77;2.95;;;12.80;99.90;;;;;;5072091;28;20070;-93
2023/03/30 03:45:30;;;;;;;8.82;2.83;;;12.80;99.90;;;;;;5089837;28;20067;-92
2023/03/30 03:47:56;;;;;;;10.82;3.40;;;12.80;99.90;;;;;;5105518;28;20493;-93
2023/03/30 03:50:22;;;;;;;10.35;3.00;;;12.80;99.90;;;;;;5074974;28;20054;-93
2023/03/30 03:52:47;;;;;;;9.10;2.67;;;12.80;99.90;;;;;;5076232;28;20075;-92
2023/03/30 03:55:13;;;;;;;9.25;2.58;;;12.90;99.90;;;;;;5075650;28;20044;-93
2023/03/30 03:57:39;;;;;;;9.15;2.75;;;12.90;99.90;;;;;;5092841;28;20086;-93
2023/03/30 04:00:14;;;;;;;9.85;3.03;;;12.90;99.90;;;;;;5092477;28;20515;-92
2023/03/30 04:02:40;;;;;;;9.77;2.92;;;12.90;99.90;;;;;;5093222;28;20040;-93
2023/03/30 04:05:06;;;;;;;10.25;2.83;;;12.90;99.90;;;;;;5075694;28;20520;-93
2023/03/30 04:07:34;;;;;;;8.25;2.85;;;13.00;99.90;;;;;;5092153;28;20036;-93
2023/03/30 04:10:00;;;;;;;8.07;2.80;;;13.00;99.90;;;;;;5076804;28;20051;-93
2023/03/30 04:12:28;;;;;;;10.32;3.65;;;13.00;99.90;;;;;;5092926;28;20044;-94
2023/03/30 04:14:54;;;;;;;9.88;2.55;;;13.10;99.90;;;;;;5076247;28;20409;-93
2023/03/30 04:17:22;;;;;;;9.85;2.97;;;13.10;99.90;;;;;;5076059;28;20048;-93
2023/03/30 04:19:52;;;;;;;10.45;2.90;;;13.00;99.90;;;;;;5076018;28;20040;-94
2023/03/30 04:22:18;;;;;;;10.48;3.22;;;13.00;99.90;;;;;;5076349;28;20118;-94
2023/03/30 04:24:44;;;;;;;10.88;3.78;;;13.00;99.90;;;;;;5075446;28;20040;-93
2023/03/30 04:27:13;;;;;;;9.65;3.08;;;13.00;99.90;;;;;;5093286;28;20134;-93
2023/03/30 04:29:39;;;;;;;10.00;4.05;;;13.00;99.90;;;;;;5092910;28;20039;-94
2023/03/30 04:32:05;;;;;;;10.00;3.15;;;13.00;99.90;;;;;;5076358;28;20042;-93
2023/03/30 04:34:32;;;;;;;7.78;2.67;;;12.90;99.90;;;;;;5075851;28;20505;-94
2023/03/30 04:36:57;;;;;;;9.48;2.75;;;12.90;99.90;;;;;;5074654;28;20478;-93
2023/03/30 04:39:23;;;;;;;10.32;3.25;;;12.90;99.90;;;;;;5075281;28;20106;-93
2023/03/30 04:41:51;;;;;;;11.80;3.30;;;12.90;99.90;;;;;;5074977;28;20032;-93
2023/03/30 04:44:19;;;;;;;9.82;3.45;;;12.80;99.90;;;;;;5075664;28;20032;-94
2023/03/30 04:46:45;;;;;;;11.23;4.07;;;12.80;99.90;;;;;;5092212;28;20051;-94
2023/03/30 04:49:10;;;;;;;10.18;3.28;;;12.90;99.90;;;;;;5092294;28;20493;-94
2023/03/30 04:51:38;;;;;;;8.45;3.08;;;12.90;99.90;;;;;;5075984;28;20039;-94
2023/03/30 04:54:04;;;;;;;10.98;3.13;;;12.80;99.90;;;;;;5109088;28;20047;-90
2023/03/30 04:56:30;;;;;;;10.38;4.10;;;12.80;99.90;;;;;;5093726;28;20055;-93
2023/03/30 04:58:56;;;;;;;9.52;3.40;;;12.80;99.90;;;;;;5108651;28;20032;-93
2023/03/30 05:01:22;;;;;;;12.32;3.30;;;12.80;99.90;;;;;;5074758;28;20048;-94
2023/03/30 05:03:47;;;;;;;8.35;2.83;;;12.80;99.90;;;;;;5074160;28;20043;-94
2023/03/30 05:06:13;;;;;;;8.35;2.70;;;12.70;99.90;;;;;;5073618;28;20497;-93
2023/03/30 05:08:39;;;;;;;8.05;3.08;;;12.70;99.90;;;;;;5091878;28;20525;-93
2023/03/30 05:11:05;;;;;;;11.68;4.07;;;12.70;99.90;;;;;;5091078;28;20119;-94
2023/03/30 05:13:31;;;;;;;7.72;2.55;;;12.70;99.90;;;;;;5075018;28;20653;-94
2023/03/30 05:15:57;;;;;;;7.20;2.38;;;12.70;99.90;;;;;;5074120;28;20107;-94
2023/03/30 05:18:22;;;;;;;9.57;3.15;;;12.70;99.90;;;;;;5072888;28;20040;-93
2023/03/30 05:20:48;;;;;;;10.00;3.65;;;12.70;99.90;;;;;;5074055;28;20040;-95
2023/03/30 05:23:14;;;;;;;11.27;2.90;;;12.80;99.90;;;;;;5073605;28;20032;-94
2023/03/30 05:25:45;;;;;;;10.13;2.63;;;12.80;99.90;;;;;;5074274;28;20040;-95
2023/03/30 05:28:11;;;;;;;12.65;3.17;;;12.80;99.90;;;;;;5073421;28;20040;-93
2023/03/30 05:30:37;;;;;;;8.27;2.92;;;12.70;99.90;;;;;;5073070;28;20047;-94
2023/03/30 05:33:04;;;;;;;10.40;2.53;;;12.70;99.90;;;;;;5072001;28;20039;-93
2023/03/30 05:35:29;;;;;;;7.03;2.47;;;12.70;99.90;;;;;;5085977;28;20040;-94
2023/03/30 05:37:55;;;;;;;9.13;2.58;;;12.80;99.90;;;;;;5066075;28;20089;-95
2023/03/30 05:40:22;;;;;;;9.02;2.35;;;12.70;99.90;;;;;;5067207;28;20062;-95
2023/03/30 05:42:47;;;;;;;8.23;2.47;;;12.80;99.90;;;;;;5075696;28;20063;-96
2023/03/30 05:45:13;;;;;;;10.10;3.67;;;12.80;99.90;;;;;;5074841;28;20482;-94
2023/03/30 05:47:39;;;;;;;8.50;2.53;;;12.80;99.90;;;;;;5090629;28;20040;-94
2023/03/30 05:50:06;;;;;;;8.88;2.60;;;12.80;99.90;;;;;;5091937;28;20046;-94
2023/03/30 05:52:32;;;;;;;9.00;3.42;;;12.80;99.90;;;;;;5073884;28;20054;-95
2023/03/30 05:54:58;;;;;;;8.88;2.63;;;12.90;99.90;;;;;;5091108;28;20048;-94
2023/03/30 05:57:23;;;;;;;7.70;2.45;;;12.90;99.90;;;;;;5090721;28;20078;-95
2023/03/30 05:59:49;;;;;;;8.68;2.33;;;12.90;99.90;;;;;;5089981;28;20051;-94
2023/03/30 06:02:16;;;;;;;9.45;3.03;;;12.90;99.90;;;;;;5074103;28;20038;-95
2023/03/30 06:04:42;;;;;;;7.88;2.05;;;13.00;99.90;;;;;;5075051;28;20028;-96
2023/03/30 06:07:08;;;;;;;7.63;1.98;;;13.00;99.90;;;;;;5073818;28;20024;-95
2023/03/30 06:09:33;;;;;;;7.40;2.40;;;13.00;99.90;;;;;;5091742;28;20036;-96
2023/03/30 06:12:00;;;;;;;10.18;3.03;;;13.00;99.90;;;;;;5073934;28;20485;-95
2023/03/30 06:14:25;;;;;;;8.82;3.30;;;13.10;99.90;;;;;;5089090;28;20549;-94
2023/03/30 06:16:51;;;;;;;8.57;1.95;;;13.20;99.90;;;;;;5073801;28;20131;-94
2023/03/30 06:19:17;;;;;;;7.35;2.35;;;13.20;99.90;;;;;;5089458;28;20115;-94
2023/03/30 06:21:43;;;;;;;6.63;1.77;;;13.20;99.90;;;;;;5090146;28;20040;-93
2023/03/30 06:24:08;;;;;;;7.97;2.28;;;13.20;99.90;;;;;;5072961;28;20039;-93
2023/03/30 06:26:34;;;;;;;5.40;1.85;;;13.20;99.90;;;;;;5089904;28;20043;-93
2023/03/30 06:29:00;;;;;;;10.07;2.13;;;13.20;99.90;;;;;;5083170;28;20466;-94
2023/03/30 06:31:26;;;;;;;8.50;2.35;;;13.30;99.90;;;;;;5065204;28;20041;-94
2023/03/30 06:33:52;;;;;;;9.02;2.50;;;13.20;99.90;;;;;;5066900;28;20051;-95
2023/03/30 06:36:18;;;;;;;8.32;3.08;;;13.30;99.90;;;;;;5066133;28;20051;-93
2023/03/30 06:38:43;;;;;;;8.68;2.00;;;13.30;99.90;;;;;;5071866;28;20415;-92
2023/03/30 06:41:11;;;;;;;10.45;1.92;;;13.30;99.90;;;;;;5071574;28;20051;-92
2023/03/30 06:43:37;;;;;;;9.05;2.42;;;13.40;99.90;;;;;;5106412;28;20040;-92
2023/03/30 06:46:03;;;;;;;8.13;2.38;;;13.40;99.90;;;;;;5106636;28;20361;-94
2023/03/30 06:48:29;;;;;;;8.55;1.90;;;13.40;99.90;;;;;;5072117;28;20453;-93
2023/03/30 06:50:55;;;;;;;6.20;1.80;;;13.40;99.90;;;;;;5090195;28;20501;-93
2023/03/30 06:53:22;;;;;;;9.85;3.20;;;13.50;99.90;;;;;;5089232;28;20134;-92
2023/03/30 06:55:52;;;;;;;6.63;1.63;;;13.50;99.90;;;;;;5071967;28;20044;-92
2023/03/30 06:58:18;;;;;;;6.82;1.73;;;13.40;99.90;;;;;;5072498;28;20043;-93
2023/03/30 07:00:44;;;;;;;6.85;1.80;;;13.40;99.90;;;;;;5072365;28;20547;-94
2023/03/30 07:03:10;;;;;;;6.07;1.70;;;13.40;99.90;;;;;;5073167;28;20131;-93
2023/03/30 07:05:35;;;;;;;7.45;1.98;;;13.40;99.90;;;;;;5106244;28;20040;-93
2023/03/30 07:08:01;;;;;;;9.68;2.95;;;13.40;99.90;;;;;;5088781;28;20535;-93
2023/03/30 07:10:29;;;;;;;7.85;1.60;;;13.50;99.90;;;;;;5073291;28;20040;-94
2023/03/30 07:12:55;;;;;;;9.35;2.10;;;13.50;99.90;;;;;;5081945;28;20071;-93
2023/03/30 07:15:21;;;;;;;10.02;3.03;;;13.50;99.90;;;;;;5107086;28;20072;-94
2023/03/30 07:17:47;;;;;;;8.82;2.15;;;13.50;99.90;;;;;;5119679;28;20051;-93
2023/03/30 07:20:16;;;;;;;7.25;1.90;;;13.50;99.90;;;;;;5089770;28;20036;-91
2023/03/30 07:22:42;;;;;;;7.22;2.03;;;13.50;99.90;;;;;;5067287;28;20124;-94
2023/03/30 07:25:09;;;;;;;9.05;2.10;;;13.40;99.90;;;;;;5066537;28;20077;-93
2023/03/30 07:27:36;;;;;;;12.25;3.33;;;13.40;99.90;;;;;;5075643;28;20075;-93
2023/03/30 07:30:04;;;;;;;14.07;2.78;;;13.50;99.90;;;;;;5076063;28;20051;-92
2023/03/30 07:32:30;;;;;;;6.80;1.98;;;13.40;99.90;;;;;;5093130;28;20040;-93
2023/03/30 07:34:56;;;;;;;12.48;2.40;;;13.40;99.90;;;;;;5076624;28;20414;-92
2023/03/30 07:37:23;;;;;;;15.65;3.22;;;13.30;99.90;;;;;;5075898;28;20043;-92
2023/03/30 07:39:49;;;;;;;9.10;1.95;;;13.30;99.90;;;;;;5076073;28;20055;-92
2023/03/30 07:42:15;;;;;;;8.45;1.90;;;13.30;99.90;;;;;;5075876;28;20115;-91
2023/03/30 07:44:41;;;;;;;13.98;3.35;;;13.30;99.90;;;;;;5092621;28;20044;-91
2023/03/30 07:47:06;;;;;;;14.27;3.60;;;13.30;99.90;;;;;;5075790;28;20394;-91
2023/03/30 07:49:32;;;;;;;7.68;1.77;;;13.30;99.90;;;;;;5092326;28;20040;-91
2023/03/30 07:51:58;;;;;;;11.77;3.00;;;13.30;99.90;;;;;;5086177;28;20424;-91
2023/03/30 07:54:24;;;;;;;12.32;2.55;;;13.30;99.90;;;;;;5100378;28;20056;-91
2023/03/30 07:56:51;;;;;;;13.50;2.28;;;13.30;99.90;;;;;;5076022;28;20478;-91
2023/03/30 07:59:20;;;;;;;9.63;1.95;;;13.30;99.90;;;;;;5092871;28;20046;-92
2023/03/30 08:01:49;;;;;;;16.70;4.32;;;13.20;99.90;;;;;;5074500;28;20079;-91
2023/03/30 08:04:15;;;;;;;9.27;1.98;;;13.30;99.90;;;;;;5092834;28;20505;-91
2023/03/30 08:06:41;;;;;;;13.35;2.25;;;13.30;99.90;;;;;;5074970;28;20039;-93
2023/03/30 08:09:08;;;;;;;12.63;2.80;;;13.30;99.90;;;;;;5075162;28;20035;-92
2023/03/30 08:11:34;;;;;;;19.05;2.63;;;13.30;99.90;;;;;;5075984;28;20400;-92
2023/03/30 08:14:01;;;;;;;9.25;2.33;;;13.30;99.90;;;;;;5074278;28;20108;-92
2023/03/30 08:16:28;;;;;;;10.45;2.75;;;13.30;99.90;;;;;;5076189;28;20512;-92
2023/03/30 08:18:54;;;;;;;11.65;2.08;;;13.20;99.90;;;;;;5109492;28;20036;-91
2023/03/30 08:21:37;;;;;;;11.80;2.15;;;13.20;99.90;;;;;;5092606;28;20479;-92
2023/03/30 08:27:58;;;;;;;14.10;2.53;;;13.10;99.90;;;;;;5028152;28;20045;-91
2023/03/30 08:30:24;;;;;;;16.10;3.60;;;13.20;99.90;;;;;;4998793;28;20052;-91
2023/03/30 08:32:52;;;;;;;12.27;2.28;;;13.20;99.90;;;;;;5014406;28;20083;-92
2023/03/30 08:35:18;;;;;;;17.48;4.47;;;13.10;99.90;;;;;;5014267;28;20041;-92
2023/03/30 08:37:44;;;;;;;12.40;3.20;;;13.20;99.90;;;;;;5014647;28;20079;-91
2023/03/30 08:40:14;;;;;;;13.13;2.63;;;13.20;99.90;;;;;;5012235;28;20041;-90
2023/03/30 08:42:57;;;;;;;10.82;2.15;;;13.20;99.90;;;;;;4996821;28;20088;-89
2023/03/30 08:45:23;;;;;;;11.32;2.22;;;13.10;99.90;;;;;;4997491;28;20576;-91
2023/03/30 08:47:51;;;;;;;14.65;3.08;;;13.10;99.90;;;;;;5025991;28;20045;-89
2023/03/30 08:50:35;;;;;;;11.75;3.30;;;13.00;99.90;;;;;;4997671;28;20078;-91
2023/03/30 08:53:05;;;;;;;10.60;2.45;;;12.80;99.90;;;;;;4997085;28;20052;-91
2023/03/30 08:55:47;;;;;;;20.38;4.78;;;12.70;99.90;;;;;;5036332;28;20062;-91
2023/03/30 08:58:34;;;;;;;13.63;2.33;;;12.60;99.90;;;;;;5091424;28;20051;-91
2023/03/30 09:01:24;;;;;;;14.02;3.35;;;12.60;99.90;;;;;;5090918;28;20476;-92
2023/03/30 09:04:05;;;;;;;15.57;3.08;;;12.60;99.90;;;;;;5091274;28;20040;-90
2023/03/30 09:06:41;;;;;;;10.82;2.30;;;12.50;99.90;;;;;;5073549;28;20387;-91
2023/03/30 09:09:12;;;;;;;15.13;3.92;;;12.50;99.90;;;;;;5073847;28;20109;-92
2023/03/30 09:11:40;;;;;;;13.55;3.13;;;12.60;99.90;;;;;;5089888;28;20048;-92
2023/03/30 09:14:11;;;;;;;14.07;2.85;;;12.80;99.90;;;;;;5073675;28;20085;-92
2023/03/30 09:16:56;;;;;;;16.48;2.70;;;12.80;99.90;;;;;;5074481;28;20096;-90
2023/03/30 09:19:55;;;;;;;12.98;2.22;;;12.90;99.90;;;;;;5090732;28;20039;-91
2023/03/30 09:22:43;;;;;;;17.95;3.90;;;13.10;99.90;;;;;;5086205;28;20031;-91
2023/03/30 09:25:32;;;;;;;13.80;3.58;;;13.30;99.90;;;;;;5066705;28;20028;-91
2023/03/30 09:28:16;;;;;;;15.38;2.83;;;13.50;99.90;;;;;;5081173;28;20039;-92
2023/03/30 09:30:47;;;;;;;18.00;3.55;;;13.80;99.90;;;;;;5085697;28;20092;-91
2023/03/30 09:33:25;;;;;;;18.17;4.60;;;13.90;99.90;;;;;;5080367;28;20404;-92
2023/03/30 09:36:13;;;;;;;13.00;3.42;;;14.20;99.90;;;;;;5079767;28;20074;-91
2023/03/30 09:38:40;;;;;;;12.57;2.85;;;14.20;99.90;;;;;;5064340;28;20468;-91
2023/03/30 09:41:47;;;;;;;16.70;3.15;;;14.10;99.90;;;;;;5064505;28;20371;-91
2023/03/30 09:44:32;;;;;;;12.38;2.15;;;14.00;99.90;;;;;;5083347;28;20123;-92
2023/03/30 09:46:59;;;;;;;12.18;2.50;;;13.90;99.90;;;;;;5064328;28;20490;-91
2023/03/30 09:49:37;;;;;;;15.10;3.97;;;13.90;99.90;;;;;;5097410;28;20040;-91
2023/03/30 09:52:06;;;;;;;14.35;3.05;;;13.90;99.90;;;;;;5064605;28;20062;-91
2023/03/30 09:54:40;;;;;;;12.90;2.55;;;13.90;99.90;;;;;;5080127;28;20521;-91
2023/03/30 09:57:28;;;;;;;11.30;2.50;;;13.90;99.90;;;;;;5096033;28;20040;-91
2023/03/30 09:59:55;;;;;;;13.45;2.90;;;13.80;99.90;;;;;;5063530;28;20044;-92
2023/03/30 10:02:23;;;;;;;14.25;3.13;;;13.80;99.90;;;;;;5064280;28;20044;-91
2023/03/30 10:04:55;;;;;;;10.98;2.63;;;13.80;99.90;;;;;;5093786;28;20375;-91
2023/03/30 10:07:26;;;;;;;17.90;4.78;;;13.80;99.90;;;;;;5062402;28;20059;-92
2023/03/30 10:09:52;;;;;;;10.43;2.42;;;13.70;99.90;;;;;;5061541;28;20031;-92
2023/03/30 10:12:18;;;;;;;12.63;2.22;;;13.70;99.90;;;;;;5077665;28;20036;-92
2023/03/30 10:14:44;;;;;;;17.58;4.50;;;13.80;99.90;;;;;;5080828;28;20063;-92
2023/03/30 10:17:23;;;;;;;17.95;2.63;;;13.90;99.90;;;;;;5063971;28;20066;-93
2023/03/30 10:19:52;;;;;;;14.88;2.92;;;14.20;99.90;;;;;;5065025;28;20036;-91
2023/03/30 10:40:21;;;;;;;17.10;2.83;;;14.00;99.90;;;;;;3122782;26;20053;-95
2023/03/30 10:42:50;;;;;;;18.00;4.15;;;14.00;99.90;;;;;;5044494;22;20107;-87
2023/03/30 10:45:25;;;;;;;12.60;2.20;;;14.10;99.90;;;;;;5031606;28;20710;-88
2023/03/30 10:47:53;;;;;;;14.75;3.70;;;14.10;99.90;;;;;;5013572;28;20040;-88
2023/03/30 10:50:48;;;;;;;11.88;2.92;;;14.10;99.90;;;;;;5021860;28;20048;-88
2023/03/30 10:53:31;;;;;;;10.43;2.20;;;14.10;99.10;;;;;;4941877;28;20472;-87
2023/03/30 10:56:20;;;;;;;13.75;2.38;;;14.00;98.50;;;;;;4933766;29;20035;-87
2023/03/30 10:58:48;;;;;;;13.30;2.15;;;14.00;95.50;;;;;;4946338;28;20181;-86
2023/03/30 11:01:51;;;;;;;12.32;2.60;;;14.00;96.00;;;;;;4945316;28;20039;-86
2023/03/30 11:04:42;;;;;;;17.17;3.90;;;14.00;93.60;;;;;;4940371;28;20130;-87
2023/03/30 11:07:24;;;;;;;14.15;3.42;;;14.10;94.60;;;;;;4918005;28;20126;-87
2023/03/30 11:09:55;;;;;;;17.30;4.45;;;14.20;95.90;;;;;;4924816;28;20530;-87
2023/03/30 11:12:25;;;;;;;13.25;2.35;;;14.20;96.10;;;;;;4945365;28;20039;-87
2023/03/30 11:15:05;;;;;;;16.48;2.90;;;14.10;95.20;;;;;;4965808;28;20039;-87
2023/03/30 11:17:48;;;;;;;14.23;2.08;;;14.20;96.40;;;;;;4944823;28;20047;-88
2023/03/30 11:20:26;;;;;;;10.95;2.55;;;14.40;97.90;;;;;;4933597;28;20035;-87
2023/03/30 11:23:04;;;;;;;17.08;4.65;;;14.50;94.60;;;;;;4946365;28;20130;-88
2023/03/30 11:25:38;;;;;;;13.73;3.88;;;14.50;94.60;;;;;;4941651;28;20062;-88
2023/03/30 11:28:27;;;;;;;9.27;2.33;;;14.50;94.90;;;;;;4940994;28;20085;-88
2023/03/30 11:30:58;;;;;;;12.50;1.98;;;14.40;93.50;;;;;;5008005;28;20040;-88
2023/03/30 11:33:40;;;;;;;18.67;4.03;;;14.20;95.30;;;;;;5027167;28;20049;-88
2023/03/30 11:36:29;;;;;;;9.70;2.45;;;14.30;95.50;;;;;;5026621;28;20435;-88
2023/03/30 11:38:59;;;;;;;8.43;1.50;;;14.30;95.30;;;;;;5047717;28;20410;-88
2023/03/30 11:41:49;;;;;;;14.20;2.92;;;14.20;93.90;;;;;;5044237;28;20084;-88
2023/03/30 11:44:16;;;;;;;19.42;3.28;;;14.30;94.80;;;;;;5045256;28;20071;-88
2023/03/30 11:47:19;;;;;;;12.55;3.38;;;14.30;96.10;;;;;;5043555;28;20044;-88
2023/03/30 11:49:50;;;;;;;9.60;1.70;;;14.60;93.80;;;;;;5030245;28;20032;-88
2023/03/30 11:52:35;;;;;;;9.40;1.85;;;14.50;90.20;;;;;;5043306;28;20033;-87
2023/03/30 11:55:28;;;;;;;15.55;3.97;;;14.40;92.40;;;;;;5029659;28;20032;-88
2023/03/30 11:58:06;;;;;;;17.15;4.40;;;14.40;92.80;;;;;;5049384;28;20033;-87
2023/03/30 12:00:59;;;;;;;15.90;3.03;;;14.50;94.80;;;;;;5046290;28;20162;-88
2023/03/30 12:03:25;;;;;;;14.07;2.80;;;14.60;93.90;;;;;;5022197;28;20033;-88
2023/03/30 12:06:26;;;;;;;14.85;3.95;;;14.50;94.10;;;;;;5044772;28;20047;-89
2023/03/30 12:09:04;;;;;;;13.88;2.22;;;14.50;92.70;;;;;;5037011;28;20044;-87
2023/03/30 12:11:39;;;;;;;12.63;2.08;;;14.40;94.70;;;;;;5025879;28;20076;-88
2023/03/30 12:14:24;;;;;;;15.70;2.70;;;14.40;94.80;;;;;;5050443;28;20098;-87
2023/03/30 12:16:55;;;;;;;13.80;2.33;;;14.40;93.50;;;;;;5047868;28;20045;-87
2023/03/30 12:19:35;;;;;;;20.15;5.20;;;14.50;93.60;;;;;;5037442;28;20073;-86
2023/03/30 12:22:06;;;;;;;20.42;4.90;;;14.80;93.70;;;;;;5046741;28;20040;-87
2023/03/30 12:24:40;;;;;;;10.43;2.17;;;15.10;91.50;;;;;;5030060;28;20037;-87
2023/03/30 12:27:08;;;;;;;19.88;4.50;;;15.00;92.40;;;;;;5046526;28;20666;-88
2023/03/30 12:29:47;;;;;;;16.17;2.67;;;15.00;92.20;;;;;;5052001;28;20063;-87
2023/03/30 12:32:23;;;;;;;19.45;4.35;;;15.20;93.40;;;;;;5035181;28;20035;-87
2023/03/30 12:34:48;;;;;;;16.52;4.32;;;15.30;91.00;;;;;;5052245;28;20045;-87
2023/03/30 12:37:33;;;;;;;18.33;4.75;;;15.30;90.30;;;;;;5054953;28;20040;-88
2023/03/30 12:40:21;;;;;;;10.55;2.00;;;15.50;89.40;;;;;;5051159;28;20040;-88
2023/03/30 12:43:07;;;;;;;14.40;2.60;;;15.60;89.40;;;;;;5034661;28;20048;-87
2023/03/30 12:45:33;;;;;;;17.42;4.80;;;16.00;90.50;;;;;;5036416;28;20052;-87
2023/03/30 12:48:10;;;;;;;17.88;4.15;;;16.20;87.30;;;;;;5054171;28;20040;-87
2023/03/30 12:50:43;;;;;;;20.40;4.60;;;16.30;85.00;;;;;;5036134;28;20037;-89
2023/03/30 12:53:08;;;;;;;16.25;4.15;;;16.30;82.60;;;;;;5037432;28;20045;-88
2023/03/30 12:55:42;;;;;;;17.65;3.95;;;16.30;82.00;;;;;;5037104;28;20043;-88
2023/03/30 12:58:20;;;;;;;22.08;4.28;;;16.20;82.20;;;;;;5024949;28;20411;-88
2023/03/30 13:00:57;;;;;;;13.68;2.75;;;16.00;83.80;;;;;;5035352;28;20037;-88
2023/03/30 13:03:51;;;;;;;12.75;2.58;;;15.80;83.60;;;;;;5033343;28;20044;-88
2023/03/30 13:06:22;;;;;;;18.90;4.70;;;15.60;84.80;;;;;;5037503;28;20401;-88
2023/03/30 13:08:53;;;;;;;19.55;4.30;;;15.50;83.90;;;;;;5050474;28;20179;-87
2023/03/30 13:11:21;;;;;;;18.52;4.43;;;15.30;84.70;;;;;;5035231;28;20068;-88
2023/03/30 13:13:51;;;;;;;17.60;4.25;;;15.40;85.00;;;;;;5036374;28;20036;-88
2023/03/30 13:16:45;;;;;;;16.15;3.25;;;15.60;84.30;;;;;;5035814;28;20133;-88
2023/03/30 13:19:40;;;;;;;14.90;3.97;;;15.80;85.30;;;;;;5037477;28;20515;-88
2023/03/30 13:22:09;;;;;;;18.23;4.15;;;16.10;83.40;;;;;;5048784;28;20044;-88
2023/03/30 13:24:39;;;;;;;18.77;4.78;;;16.30;83.70;;;;;;5027633;28;20040;-89
2023/03/30 13:27:17;;;;;;;21.17;5.10;;;16.40;81.30;;;;;;5050721;28;20036;-89
2023/03/30 13:29:55;;;;;;;13.40;2.47;;;16.40;80.70;;;;;;5016833;28;20036;-88